sensor_id;sensor_type;location;lat;lon;timestamp;temperature;humidity
46490;DHT22;32204;49.160;8.580;2024-01-11T00:00:28;-2.30;1.00
46490;DHT22;32204;49.160;8.580;2024-01-11T00:02:54;-2.30;1.00
46490;DHT22;32204;49.160;8.580;2024-01-11T00:05:20;-2.40;1.00
46490;DHT22;32204;49.160;8.580;2024-01-11T00:07:46;-2.40;1.00
46490;DHT22;32204;49.160;8.580;2024-01-11T00:10:12;-2.50;1.00
46490;DHT22;32204;49.160;8.580;2024-01-11T00:12:38;-2.60;1.00
46490;DHT22;32204;49.160;8.580;2024-01-11T00:15:03;-2.60;1.00
46490;DHT22;32204;49.160;8.580;2024-01-11T00:17:29;-2.60;1.00
46490;DHT22;32204;49.160;8.580;2024-01-11T00:19:55;-2.50;1.00
46490;DHT22;32204;49.160;8.580;2024-01-11T00:22:20;-2.50;1.00
46490;DHT22;32204;49.160;8.580;2024-01-11T00:24:46;-2.50;1.00
46490;DHT22;32204;49.160;8.580;2024-01-11T00:27:11;-2.50;1.00
46490;DHT22;32204;49.160;8.580;2024-01-11T00:29:37;-2.50;1.00
46490;DHT22;32204;49.160;8.580;2024-01-11T00:32:03;-2.50;1.00
46490;DHT22;32204;49.160;8.580;2024-01-11T00:34:28;-2.50;1.00
46490;DHT22;32204;49.160;8.580;2024-01-11T00:36:54;-2.40;1.00
46490;DHT22;32204;49.160;8.580;2024-01-11T00:39:20;-2.40;1.00
46490;DHT22;32204;49.160;8.580;2024-01-11T00:41:46;-2.40;1.00
46490;DHT22;32204;49.160;8.580;2024-01-11T00:44:11;-2.50;1.00
46490;DHT22;32204;49.160;8.580;2024-01-11T00:46:37;-2.40;1.00
46490;DHT22;32204;49.160;8.580;2024-01-11T00:49:03;-2.50;1.00
46490;DHT22;32204;49.160;8.580;2024-01-11T00:51:29;-2.70;1.00
46490;DHT22;32204;49.160;8.580;2024-01-11T00:53:54;-2.80;1.00
46490;DHT22;32204;49.160;8.580;2024-01-11T00:56:20;-3.00;1.00
46490;DHT22;32204;49.160;8.580;2024-01-11T00:58:46;-3.10;99.90
46490;DHT22;32204;49.160;8.580;2024-01-11T01:01:12;-2.90;99.90
46490;DHT22;32204;49.160;8.580;2024-01-11T01:03:39;-2.90;97.30
46490;DHT22;32204;49.160;8.580;2024-01-11T01:06:04;-2.90;15.90
46490;DHT22;32204;49.160;8.580;2024-01-11T01:08:31;-2.90;21.60
46490;DHT22;32204;49.160;8.580;2024-01-11T01:10:56;-2.90;13.30
46490;DHT22;32204;49.160;8.580;2024-01-11T01:13:22;-2.80;49.40
46490;DHT22;32204;49.160;8.580;2024-01-11T01:15:48;-2.80;1.00
46490;DHT22;32204;49.160;8.580;2024-01-11T01:18:14;-2.80;1.00
46490;DHT22;32204;49.160;8.580;2024-01-11T01:20:39;-2.70;1.00
46490;DHT22;32204;49.160;8.580;2024-01-11T01:23:05;-2.60;1.00
46490;DHT22;32204;49.160;8.580;2024-01-11T01:25:31;-2.60;1.00
46490;DHT22;32204;49.160;8.580;2024-01-11T01:27:58;-2.50;1.00
46490;DHT22;32204;49.160;8.580;2024-01-11T01:30:24;-2.40;1.00
46490;DHT22;32204;49.160;8.580;2024-01-11T01:32:50;-2.60;1.00
46490;DHT22;32204;49.160;8.580;2024-01-11T01:35:16;-2.60;1.00
46490;DHT22;32204;49.160;8.580;2024-01-11T01:37:41;-2.60;1.00
46490;DHT22;32204;49.160;8.580;2024-01-11T01:40:08;-2.70;1.00
46490;DHT22;32204;49.160;8.580;2024-01-11T01:42:34;-2.70;1.00
46490;DHT22;32204;49.160;8.580;2024-01-11T01:44:59;-2.80;1.00
46490;DHT22;32204;49.160;8.580;2024-01-11T01:47:29;-2.70;1.00
46490;DHT22;32204;49.160;8.580;2024-01-11T01:49:55;-2.80;1.00
46490;DHT22;32204;49.160;8.580;2024-01-11T01:52:22;-3.00;1.00
46490;DHT22;32204;49.160;8.580;2024-01-11T01:54:48;-3.10;1.00
46490;DHT22;32204;49.160;8.580;2024-01-11T01:57:15;-3.20;19.10
46490;DHT22;32204;49.160;8.580;2024-01-11T01:59:42;-3.20;99.90
46490;DHT22;32204;49.160;8.580;2024-01-11T02:02:09;-3.20;99.90
46490;DHT22;32204;49.160;8.580;2024-01-11T02:04:36;-3.30;99.90
46490;DHT22;32204;49.160;8.580;2024-01-11T02:07:02;-3.20;99.90
46490;DHT22;32204;49.160;8.580;2024-01-11T02:09:28;-3.10;99.90
46490;DHT22;32204;49.160;8.580;2024-01-11T02:11:54;-3.00;99.90
46490;DHT22;32204;49.160;8.580;2024-01-11T02:14:20;-2.80;73.60
46490;DHT22;32204;49.160;8.580;2024-01-11T02:16:46;-2.80;1.00
46490;DHT22;32204;49.160;8.580;2024-01-11T02:19:13;-3.00;1.00
46490;DHT22;32204;49.160;8.580;2024-01-11T02:21:42;-3.00;1.00
46490;DHT22;32204;49.160;8.580;2024-01-11T02:24:08;-3.00;79.70
46490;DHT22;32204;49.160;8.580;2024-01-11T02:26:34;-3.00;99.90
46490;DHT22;32204;49.160;8.580;2024-01-11T02:28:59;-3.00;1.00
46490;DHT22;32204;49.160;8.580;2024-01-11T02:31:26;-3.10;69.50
46490;DHT22;32204;49.160;8.580;2024-01-11T02:33:55;-3.10;99.90
46490;DHT22;32204;49.160;8.580;2024-01-11T02:36:21;-3.20;99.90
46490;DHT22;32204;49.160;8.580;2024-01-11T02:38:47;-3.20;99.90
46490;DHT22;32204;49.160;8.580;2024-01-11T02:41:16;-3.20;99.90
46490;DHT22;32204;49.160;8.580;2024-01-11T02:43:51;-3.20;99.90
46490;DHT22;32204;49.160;8.580;2024-01-11T02:46:17;-3.10;99.90
46490;DHT22;32204;49.160;8.580;2024-01-11T02:48:43;-3.20;84.90
46490;DHT22;32204;49.160;8.580;2024-01-11T02:51:09;-3.20;96.30
46490;DHT22;32204;49.160;8.580;2024-01-11T02:53:34;-3.20;99.90
46490;DHT22;32204;49.160;8.580;2024-01-11T02:56:03;-3.20;99.90
46490;DHT22;32204;49.160;8.580;2024-01-11T02:58:28;-3.10;99.90
46490;DHT22;32204;49.160;8.580;2024-01-11T03:00:54;-3.00;99.90
46490;DHT22;32204;49.160;8.580;2024-01-11T03:03:20;-3.00;99.90
46490;DHT22;32204;49.160;8.580;2024-01-11T03:05:45;-3.00;99.90
46490;DHT22;32204;49.160;8.580;2024-01-11T03:08:11;-3.00;36.30
46490;DHT22;32204;49.160;8.580;2024-01-11T03:10:39;-3.10;1.00
46490;DHT22;32204;49.160;8.580;2024-01-11T03:13:06;-3.20;29.40
46490;DHT22;32204;49.160;8.580;2024-01-11T03:15:32;-3.30;66.80
46490;DHT22;32204;49.160;8.580;2024-01-11T03:17:58;-3.30;99.90
46490;DHT22;32204;49.160;8.580;2024-01-11T03:20:24;-3.30;99.90
46490;DHT22;32204;49.160;8.580;2024-01-11T03:22:51;-3.30;30.90
46490;DHT22;32204;49.160;8.580;2024-01-11T03:25:17;-3.30;92.00
46490;DHT22;32204;49.160;8.580;2024-01-11T03:27:42;-3.30;96.40
46490;DHT22;32204;49.160;8.580;2024-01-11T03:30:08;-3.20;99.90
46490;DHT22;32204;49.160;8.580;2024-01-11T03:32:34;-3.10;90.90
46490;DHT22;32204;49.160;8.580;2024-01-11T03:35:00;-3.00;91.60
46490;DHT22;32204;49.160;8.580;2024-01-11T03:37:25;-3.20;1.00
46490;DHT22;32204;49.160;8.580;2024-01-11T03:39:51;-3.30;1.00
46490;DHT22;32204;49.160;8.580;2024-01-11T03:42:16;-3.50;1.00
46490;DHT22;32204;49.160;8.580;2024-01-11T03:44:42;-3.50;99.90
46490;DHT22;32204;49.160;8.580;2024-01-11T03:47:08;-3.60;99.90
46490;DHT22;32204;49.160;8.580;2024-01-11T03:49:33;-3.60;99.90
46490;DHT22;32204;49.160;8.580;2024-01-11T03:51:59;-3.50;99.90
46490;DHT22;32204;49.160;8.580;2024-01-11T03:54:24;-3.50;99.90
46490;DHT22;32204;49.160;8.580;2024-01-11T03:56:50;-3.40;99.90
46490;DHT22;32204;49.160;8.580;2024-01-11T03:59:16;-3.40;99.90
46490;DHT22;32204;49.160;8.580;2024-01-11T04:01:42;-3.40;99.90
46490;DHT22;32204;49.160;8.580;2024-01-11T04:04:07;-3.50;99.90
46490;DHT22;32204;49.160;8.580;2024-01-11T04:06:33;-3.50;99.90
46490;DHT22;32204;49.160;8.580;2024-01-11T04:08:59;-3.50;99.90
46490;DHT22;32204;49.160;8.580;2024-01-11T04:11:28;-3.40;99.90
46490;DHT22;32204;49.160;8.580;2024-01-11T04:13:53;-3.30;99.90
46490;DHT22;32204;49.160;8.580;2024-01-11T04:16:20;-3.20;99.90
46490;DHT22;32204;49.160;8.580;2024-01-11T04:18:45;-3.30;99.90
46490;DHT22;32204;49.160;8.580;2024-01-11T04:21:24;-3.40;99.90
46490;DHT22;32204;49.160;8.580;2024-01-11T04:23:50;-3.60;68.70
46490;DHT22;32204;49.160;8.580;2024-01-11T04:26:17;-3.80;99.80
46490;DHT22;32204;49.160;8.580;2024-01-11T04:28:48;-3.80;99.90
46490;DHT22;32204;49.160;8.580;2024-01-11T04:31:14;-3.80;99.90
46490;DHT22;32204;49.160;8.580;2024-01-11T04:33:42;-3.80;99.90
46490;DHT22;32204;49.160;8.580;2024-01-11T04:36:09;-3.70;1.00
46490;DHT22;32204;49.160;8.580;2024-01-11T04:38:35;-3.60;1.00
46490;DHT22;32204;49.160;8.580;2024-01-11T04:41:00;-3.50;99.90
46490;DHT22;32204;49.160;8.580;2024-01-11T04:43:26;-3.50;99.90
46490;DHT22;32204;49.160;8.580;2024-01-11T04:45:52;-3.60;2.90
46490;DHT22;32204;49.160;8.580;2024-01-11T04:48:17;-3.70;99.90
46490;DHT22;32204;49.160;8.580;2024-01-11T04:50:44;-3.80;99.90
46490;DHT22;32204;49.160;8.580;2024-01-11T04:53:12;-3.80;1.00
46490;DHT22;32204;49.160;8.580;2024-01-11T04:55:38;-3.80;1.00
46490;DHT22;32204;49.160;8.580;2024-01-11T04:58:03;-3.80;1.00
46490;DHT22;32204;49.160;8.580;2024-01-11T05:00:29;-3.70;1.00
46490;DHT22;32204;49.160;8.580;2024-01-11T05:02:55;-3.60;1.00
46490;DHT22;32204;49.160;8.580;2024-01-11T05:05:20;-3.40;1.00
46490;DHT22;32204;49.160;8.580;2024-01-11T05:07:46;-3.40;99.90
46490;DHT22;32204;49.160;8.580;2024-01-11T05:10:12;-3.40;99.90
46490;DHT22;32204;49.160;8.580;2024-01-11T05:12:37;-3.40;99.90
46490;DHT22;32204;49.160;8.580;2024-01-11T05:15:05;-3.50;8.40
46490;DHT22;32204;49.160;8.580;2024-01-11T05:17:31;-3.40;50.70
46490;DHT22;32204;49.160;8.580;2024-01-11T05:19:57;-3.40;99.90
46490;DHT22;32204;49.160;8.580;2024-01-11T05:22:22;-3.30;91.40
46490;DHT22;32204;49.160;8.580;2024-01-11T05:24:48;-3.20;95.30
46490;DHT22;32204;49.160;8.580;2024-01-11T05:27:14;-3.50;1.00
46490;DHT22;32204;49.160;8.580;2024-01-11T05:29:39;-3.70;1.00
46490;DHT22;32204;49.160;8.580;2024-01-11T05:32:05;-3.80;70.80
46490;DHT22;32204;49.160;8.580;2024-01-11T05:34:31;-3.90;99.90
46490;DHT22;32204;49.160;8.580;2024-01-11T05:36:56;-3.90;99.90
46490;DHT22;32204;49.160;8.580;2024-01-11T05:39:22;-4.00;99.90
46490;DHT22;32204;49.160;8.580;2024-01-11T05:41:47;-4.00;99.90
46490;DHT22;32204;49.160;8.580;2024-01-11T05:44:13;-3.90;99.90
46490;DHT22;32204;49.160;8.580;2024-01-11T05:46:39;-3.80;99.90
46490;DHT22;32204;49.160;8.580;2024-01-11T05:49:04;-3.80;99.90
46490;DHT22;32204;49.160;8.580;2024-01-11T05:51:30;-3.70;99.90
46490;DHT22;32204;49.160;8.580;2024-01-11T05:53:55;-3.60;99.90
46490;DHT22;32204;49.160;8.580;2024-01-11T05:56:21;-3.70;43.30
46490;DHT22;32204;49.160;8.580;2024-01-11T05:58:47;-3.60;80.90
46490;DHT22;32204;49.160;8.580;2024-01-11T06:01:12;-3.70;1.00
46490;DHT22;32204;49.160;8.580;2024-01-11T06:03:38;-3.70;37.90
46490;DHT22;32204;49.160;8.580;2024-01-11T06:06:05;-3.70;1.00
46490;DHT22;32204;49.160;8.580;2024-01-11T06:08:31;-3.80;99.90
46490;DHT22;32204;49.160;8.580;2024-01-11T06:10:57;-3.70;99.90
46490;DHT22;32204;49.160;8.580;2024-01-11T06:13:23;-3.60;99.90
46490;DHT22;32204;49.160;8.580;2024-01-11T06:15:48;-3.80;11.90
46490;DHT22;32204;49.160;8.580;2024-01-11T06:18:15;-4.00;99.90
46490;DHT22;32204;49.160;8.580;2024-01-11T06:20:41;-4.00;99.90
46490;DHT22;32204;49.160;8.580;2024-01-11T06:23:06;-3.90;99.90
46490;DHT22;32204;49.160;8.580;2024-01-11T06:25:32;-3.90;99.90
46490;DHT22;32204;49.160;8.580;2024-01-11T06:27:58;-3.90;99.90
46490;DHT22;32204;49.160;8.580;2024-01-11T06:30:23;-3.90;99.90
46490;DHT22;32204;49.160;8.580;2024-01-11T06:32:49;-3.80;99.90
46490;DHT22;32204;49.160;8.580;2024-01-11T06:35:14;-3.80;99.90
46490;DHT22;32204;49.160;8.580;2024-01-11T06:37:40;-3.70;99.90
46490;DHT22;32204;49.160;8.580;2024-01-11T06:40:06;-3.70;99.90
46490;DHT22;32204;49.160;8.580;2024-01-11T06:42:33;-3.70;99.90
46490;DHT22;32204;49.160;8.580;2024-01-11T06:44:59;-3.80;44.30
46490;DHT22;32204;49.160;8.580;2024-01-11T06:47:25;-3.90;99.90
46490;DHT22;32204;49.160;8.580;2024-01-11T06:49:50;-3.90;99.90
46490;DHT22;32204;49.160;8.580;2024-01-11T06:52:16;-3.80;99.90
46490;DHT22;32204;49.160;8.580;2024-01-11T06:54:45;-3.80;99.90
46490;DHT22;32204;49.160;8.580;2024-01-11T06:57:11;-3.80;99.90
46490;DHT22;32204;49.160;8.580;2024-01-11T06:59:36;-3.90;8.80
46490;DHT22;32204;49.160;8.580;2024-01-11T07:02:02;-4.00;72.20
46490;DHT22;32204;49.160;8.580;2024-01-11T07:04:28;-4.10;99.90
46490;DHT22;32204;49.160;8.580;2024-01-11T07:06:54;-4.10;99.90
46490;DHT22;32204;49.160;8.580;2024-01-11T07:09:20;-4.20;99.90
46490;DHT22;32204;49.160;8.580;2024-01-11T07:11:46;-4.10;99.90
46490;DHT22;32204;49.160;8.580;2024-01-11T07:14:12;-4.00;99.90
46490;DHT22;32204;49.160;8.580;2024-01-11T07:16:37;-4.00;99.90
46490;DHT22;32204;49.160;8.580;2024-01-11T07:19:03;-3.90;99.90
46490;DHT22;32204;49.160;8.580;2024-01-11T07:21:29;-3.90;99.90
46490;DHT22;32204;49.160;8.580;2024-01-11T07:23:58;-3.90;99.90
46490;DHT22;32204;49.160;8.580;2024-01-11T07:26:24;-4.00;99.90
46490;DHT22;32204;49.160;8.580;2024-01-11T07:28:50;-4.00;99.90
46490;DHT22;32204;49.160;8.580;2024-01-11T07:31:16;-3.90;99.90
46490;DHT22;32204;49.160;8.580;2024-01-11T07:33:43;-3.80;99.90
46490;DHT22;32204;49.160;8.580;2024-01-11T07:36:08;-3.90;46.60
46490;DHT22;32204;49.160;8.580;2024-01-11T07:38:34;-4.00;41.60
46490;DHT22;32204;49.160;8.580;2024-01-11T07:41:00;-3.90;99.90
46490;DHT22;32204;49.160;8.580;2024-01-11T07:43:27;-3.90;99.90
46490;DHT22;32204;49.160;8.580;2024-01-11T07:45:54;-3.90;99.90
46490;DHT22;32204;49.160;8.580;2024-01-11T07:48:22;-3.80;99.90
46490;DHT22;32204;49.160;8.580;2024-01-11T07:50:48;-3.80;99.90
46490;DHT22;32204;49.160;8.580;2024-01-11T07:53:14;-3.70;99.90
46490;DHT22;32204;49.160;8.580;2024-01-11T07:55:40;-3.70;99.90
46490;DHT22;32204;49.160;8.580;2024-01-11T07:58:06;-3.80;51.20
46490;DHT22;32204;49.160;8.580;2024-01-11T08:00:32;-3.60;99.90
46490;DHT22;32204;49.160;8.580;2024-01-11T08:02:57;-3.60;99.90
46490;DHT22;32204;49.160;8.580;2024-01-11T08:05:23;-3.60;99.90
46490;DHT22;32204;49.160;8.580;2024-01-11T08:07:48;-3.50;99.90
46490;DHT22;32204;49.160;8.580;2024-01-11T08:10:15;-3.40;99.90
46490;DHT22;32204;49.160;8.580;2024-01-11T08:12:40;-3.40;99.90
46490;DHT22;32204;49.160;8.580;2024-01-11T08:15:06;-3.30;99.90
46490;DHT22;32204;49.160;8.580;2024-01-11T08:17:32;-3.30;99.90
46490;DHT22;32204;49.160;8.580;2024-01-11T08:19:57;-3.40;99.90
46490;DHT22;32204;49.160;8.580;2024-01-11T08:22:23;-3.30;1.00
46490;DHT22;32204;49.160;8.580;2024-01-11T08:24:49;-3.30;99.90
46490;DHT22;32204;49.160;8.580;2024-01-11T08:27:15;-3.20;1.00
46490;DHT22;32204;49.160;8.580;2024-01-11T08:29:43;-3.10;1.00
46490;DHT22;32204;49.160;8.580;2024-01-11T08:32:09;-3.10;1.00
46490;DHT22;32204;49.160;8.580;2024-01-11T08:34:34;-2.90;67.10
46490;DHT22;32204;49.160;8.580;2024-01-11T08:37:00;-3.00;99.90
46490;DHT22;32204;49.160;8.580;2024-01-11T08:39:25;-2.80;99.90
46490;DHT22;32204;49.160;8.580;2024-01-11T08:41:51;-2.70;99.90
46490;DHT22;32204;49.160;8.580;2024-01-11T08:44:18;-2.70;99.90
46490;DHT22;32204;49.160;8.580;2024-01-11T08:46:44;-2.70;99.90
46490;DHT22;32204;49.160;8.580;2024-01-11T08:49:09;-2.60;99.90
46490;DHT22;32204;49.160;8.580;2024-01-11T08:51:35;-2.50;99.90
46490;DHT22;32204;49.160;8.580;2024-01-11T08:54:01;-2.40;99.90
46490;DHT22;32204;49.160;8.580;2024-01-11T08:56:27;-2.40;99.90
46490;DHT22;32204;49.160;8.580;2024-01-11T08:58:53;-2.30;99.90
46490;DHT22;32204;49.160;8.580;2024-01-11T09:01:19;-2.20;99.90
46490;DHT22;32204;49.160;8.580;2024-01-11T09:03:44;-2.30;99.90
46490;DHT22;32204;49.160;8.580;2024-01-11T09:06:10;-2.20;99.90
46490;DHT22;32204;49.160;8.580;2024-01-11T09:08:36;-2.20;99.90
46490;DHT22;32204;49.160;8.580;2024-01-11T09:11:02;-2.20;99.90
46490;DHT22;32204;49.160;8.580;2024-01-11T09:13:28;-2.00;99.90
46490;DHT22;32204;49.160;8.580;2024-01-11T09:15:55;-1.80;99.90
46490;DHT22;32204;49.160;8.580;2024-01-11T09:18:21;-1.70;1.00
46490;DHT22;32204;49.160;8.580;2024-01-11T09:20:46;-1.60;1.00
46490;DHT22;32204;49.160;8.580;2024-01-11T09:23:13;-1.70;1.00
46490;DHT22;32204;49.160;8.580;2024-01-11T09:25:39;-1.80;1.00
46490;DHT22;32204;49.160;8.580;2024-01-11T09:28:07;-1.80;1.00
46490;DHT22;32204;49.160;8.580;2024-01-11T09:30:33;-1.80;1.00
46490;DHT22;32204;49.160;8.580;2024-01-11T09:32:58;-1.80;1.00
46490;DHT22;32204;49.160;8.580;2024-01-11T09:35:24;-1.60;1.00
46490;DHT22;32204;49.160;8.580;2024-01-11T09:37:50;-1.50;99.90
46490;DHT22;32204;49.160;8.580;2024-01-11T09:40:17;-1.60;99.90
46490;DHT22;32204;49.160;8.580;2024-01-11T09:42:43;-1.70;1.00
46490;DHT22;32204;49.160;8.580;2024-01-11T09:45:16;-1.70;1.00
46490;DHT22;32204;49.160;8.580;2024-01-11T09:47:42;-1.60;1.00
46490;DHT22;32204;49.160;8.580;2024-01-11T09:50:10;-1.50;99.90
46490;DHT22;32204;49.160;8.580;2024-01-11T09:52:36;-1.40;99.90
46490;DHT22;32204;49.160;8.580;2024-01-11T09:55:03;-1.20;99.90
46490;DHT22;32204;49.160;8.580;2024-01-11T09:57:31;-1.20;99.90
46490;DHT22;32204;49.160;8.580;2024-01-11T09:59:58;-1.10;99.90
46490;DHT22;32204;49.160;8.580;2024-01-11T10:02:24;-1.00;99.90
46490;DHT22;32204;49.160;8.580;2024-01-11T10:04:52;-0.80;99.90
46490;DHT22;32204;49.160;8.580;2024-01-11T10:07:21;-0.80;48.20
46490;DHT22;32204;49.160;8.580;2024-01-11T10:09:47;-0.60;1.00
46490;DHT22;32204;49.160;8.580;2024-01-11T10:12:13;-0.70;1.00
46490;DHT22;32204;49.160;8.580;2024-01-11T10:14:39;-0.70;1.00
46490;DHT22;32204;49.160;8.580;2024-01-11T10:17:07;-0.90;1.00
46490;DHT22;32204;49.160;8.580;2024-01-11T10:19:33;-1.00;97.90
46490;DHT22;32204;49.160;8.580;2024-01-11T10:21:58;-0.90;99.90
46490;DHT22;32204;49.160;8.580;2024-01-11T10:24:24;-1.00;99.90
46490;DHT22;32204;49.160;8.580;2024-01-11T10:26:57;-0.90;99.90
46490;DHT22;32204;49.160;8.580;2024-01-11T10:29:30;-0.80;99.90
46490;DHT22;32204;49.160;8.580;2024-01-11T10:31:56;-0.80;99.90
46490;DHT22;32204;49.160;8.580;2024-01-11T10:34:25;-0.70;99.90
46490;DHT22;32204;49.160;8.580;2024-01-11T10:36:51;-0.60;99.90
46490;DHT22;32204;49.160;8.580;2024-01-11T10:39:17;-0.50;26.30
46490;DHT22;32204;49.160;8.580;2024-01-11T10:41:51;-0.50;83.10
46490;DHT22;32204;49.160;8.580;2024-01-11T10:44:21;-0.40;45.60
46490;DHT22;32204;49.160;8.580;2024-01-11T10:46:50;-0.30;99.90
46490;DHT22;32204;49.160;8.580;2024-01-11T10:49:23;-0.20;1.00
46490;DHT22;32204;49.160;8.580;2024-01-11T10:52:04;-0.10;1.00
46490;DHT22;32204;49.160;8.580;2024-01-11T10:54:31;0.00;1.00
46490;DHT22;32204;49.160;8.580;2024-01-11T10:57:00;0.20;1.00
46490;DHT22;32204;49.160;8.580;2024-01-11T10:59:26;0.20;99.90
46490;DHT22;32204;49.160;8.580;2024-01-11T11:01:57;0.30;99.90
46490;DHT22;32204;49.160;8.580;2024-01-11T11:04:24;0.30;99.90
46490;DHT22;32204;49.160;8.580;2024-01-11T11:06:56;0.30;99.90
46490;DHT22;32204;49.160;8.580;2024-01-11T11:09:24;0.30;99.90
46490;DHT22;32204;49.160;8.580;2024-01-11T11:11:53;0.40;99.90
46490;DHT22;32204;49.160;8.580;2024-01-11T11:14:21;0.40;99.90
46490;DHT22;32204;49.160;8.580;2024-01-11T11:16:47;0.50;99.90
46490;DHT22;32204;49.160;8.580;2024-01-11T11:19:13;0.60;99.90
46490;DHT22;32204;49.160;8.580;2024-01-11T11:21:47;0.60;99.90
46490;DHT22;32204;49.160;8.580;2024-01-11T11:24:13;0.60;99.90
46490;DHT22;32204;49.160;8.580;2024-01-11T11:26:39;0.80;99.90
46490;DHT22;32204;49.160;8.580;2024-01-11T11:29:04;0.80;99.90
46490;DHT22;32204;49.160;8.580;2024-01-11T11:31:45;0.90;77.00
46490;DHT22;32204;49.160;8.580;2024-01-11T11:34:13;1.00;59.60
46490;DHT22;32204;49.160;8.580;2024-01-11T11:36:42;1.10;45.70
46490;DHT22;32204;49.160;8.580;2024-01-11T11:39:11;1.10;28.60
46490;DHT22;32204;49.160;8.580;2024-01-11T11:41:37;1.20;27.10
46490;DHT22;32204;49.160;8.580;2024-01-11T11:44:04;1.20;16.20
46490;DHT22;32204;49.160;8.580;2024-01-11T11:46:31;1.30;38.10
46490;DHT22;32204;49.160;8.580;2024-01-11T11:48:57;1.40;1.00
46490;DHT22;32204;49.160;8.580;2024-01-11T11:51:23;1.30;1.00
46490;DHT22;32204;49.160;8.580;2024-01-11T11:53:50;1.40;1.00
46490;DHT22;32204;49.160;8.580;2024-01-11T11:56:18;1.60;1.00
46490;DHT22;32204;49.160;8.580;2024-01-11T11:58:45;1.60;1.00
46490;DHT22;32204;49.160;8.580;2024-01-11T12:01:10;1.60;1.00
46490;DHT22;32204;49.160;8.580;2024-01-11T12:03:38;1.60;1.00
46490;DHT22;32204;49.160;8.580;2024-01-11T12:06:08;1.60;1.00
46490;DHT22;32204;49.160;8.580;2024-01-11T12:08:34;1.50;1.00
46490;DHT22;32204;49.160;8.580;2024-01-11T12:11:01;1.60;1.00
46490;DHT22;32204;49.160;8.580;2024-01-11T12:13:27;1.70;1.00
46490;DHT22;32204;49.160;8.580;2024-01-11T12:15:53;1.80;1.00
46490;DHT22;32204;49.160;8.580;2024-01-11T12:18:18;1.80;1.00
46490;DHT22;32204;49.160;8.580;2024-01-11T12:20:45;1.90;1.00
46490;DHT22;32204;49.160;8.580;2024-01-11T12:23:11;1.80;1.00
46490;DHT22;32204;49.160;8.580;2024-01-11T12:25:42;1.80;1.00
46490;DHT22;32204;49.160;8.580;2024-01-11T12:28:08;1.90;1.00
46490;DHT22;32204;49.160;8.580;2024-01-11T12:30:34;2.00;1.00
46490;DHT22;32204;49.160;8.580;2024-01-11T12:33:00;2.00;1.00
46490;DHT22;32204;49.160;8.580;2024-01-11T12:35:29;2.10;1.00
46490;DHT22;32204;49.160;8.580;2024-01-11T12:37:55;2.20;1.00
46490;DHT22;32204;49.160;8.580;2024-01-11T12:40:23;2.30;1.00
46490;DHT22;32204;49.160;8.580;2024-01-11T12:42:49;2.20;1.00
46490;DHT22;32204;49.160;8.580;2024-01-11T12:45:18;2.20;1.00
46490;DHT22;32204;49.160;8.580;2024-01-11T12:47:44;2.20;1.00
46490;DHT22;32204;49.160;8.580;2024-01-11T12:50:11;2.40;1.00
46490;DHT22;32204;49.160;8.580;2024-01-11T12:52:38;2.40;1.00
46490;DHT22;32204;49.160;8.580;2024-01-11T12:55:06;2.40;1.00
46490;DHT22;32204;49.160;8.580;2024-01-11T12:57:33;2.40;1.00
46490;DHT22;32204;49.160;8.580;2024-01-11T13:00:14;2.40;1.00
46490;DHT22;32204;49.160;8.580;2024-01-11T13:02:41;2.50;1.00
46490;DHT22;32204;49.160;8.580;2024-01-11T13:05:09;2.50;1.00
46490;DHT22;32204;49.160;8.580;2024-01-11T13:07:37;2.60;1.00
46490;DHT22;32204;49.160;8.580;2024-01-11T13:10:02;2.70;1.00
46490;DHT22;32204;49.160;8.580;2024-01-11T13:12:29;2.80;1.00
46490;DHT22;32204;49.160;8.580;2024-01-11T13:14:55;2.70;1.00
46490;DHT22;32204;49.160;8.580;2024-01-11T13:17:21;2.80;1.00
46490;DHT22;32204;49.160;8.580;2024-01-11T13:19:47;2.70;1.00
46490;DHT22;32204;49.160;8.580;2024-01-11T13:22:12;2.60;1.00
46490;DHT22;32204;49.160;8.580;2024-01-11T13:24:38;2.50;1.00
46490;DHT22;32204;49.160;8.580;2024-01-11T13:27:04;2.60;1.00
46490;DHT22;32204;49.160;8.580;2024-01-11T13:29:30;2.60;1.00
46490;DHT22;32204;49.160;8.580;2024-01-11T13:31:55;2.60;1.00
46490;DHT22;32204;49.160;8.580;2024-01-11T13:34:21;2.70;1.00
46490;DHT22;32204;49.160;8.580;2024-01-11T13:36:46;2.80;1.00
46490;DHT22;32204;49.160;8.580;2024-01-11T13:39:12;2.80;1.00
46490;DHT22;32204;49.160;8.580;2024-01-11T13:41:38;2.80;1.00
46490;DHT22;32204;49.160;8.580;2024-01-11T13:44:06;2.60;1.00
46490;DHT22;32204;49.160;8.580;2024-01-11T13:46:32;2.60;1.00
46490;DHT22;32204;49.160;8.580;2024-01-11T13:48:58;2.60;1.00
46490;DHT22;32204;49.160;8.580;2024-01-11T13:51:23;2.60;1.00
46490;DHT22;32204;49.160;8.580;2024-01-11T13:53:49;2.70;1.00
46490;DHT22;32204;49.160;8.580;2024-01-11T13:56:15;2.80;1.00
46490;DHT22;32204;49.160;8.580;2024-01-11T13:58:40;2.90;1.00
46490;DHT22;32204;49.160;8.580;2024-01-11T14:01:06;2.80;1.00
46490;DHT22;32204;49.160;8.580;2024-01-11T14:03:33;2.80;1.00
46490;DHT22;32204;49.160;8.580;2024-01-11T14:05:59;2.80;1.00
46490;DHT22;32204;49.160;8.580;2024-01-11T14:08:25;2.80;1.00
46490;DHT22;32204;49.160;8.580;2024-01-11T14:10:51;2.80;1.00
46490;DHT22;32204;49.160;8.580;2024-01-11T14:13:17;2.80;1.00
46490;DHT22;32204;49.160;8.580;2024-01-11T14:15:42;2.80;1.00
46490;DHT22;32204;49.160;8.580;2024-01-11T14:18:08;2.80;1.00
46490;DHT22;32204;49.160;8.580;2024-01-11T14:20:34;2.90;1.00
46490;DHT22;32204;49.160;8.580;2024-01-11T14:23:00;3.00;1.00
46490;DHT22;32204;49.160;8.580;2024-01-11T14:25:26;2.90;1.00
46490;DHT22;32204;49.160;8.580;2024-01-11T14:27:52;2.80;1.00
46490;DHT22;32204;49.160;8.580;2024-01-11T14:30:21;2.70;1.00
46490;DHT22;32204;49.160;8.580;2024-01-11T14:32:48;2.80;1.00
46490;DHT22;32204;49.160;8.580;2024-01-11T14:35:14;2.70;1.00
46490;DHT22;32204;49.160;8.580;2024-01-11T14:37:40;2.70;1.00
46490;DHT22;32204;49.160;8.580;2024-01-11T14:40:08;2.80;1.00
46490;DHT22;32204;49.160;8.580;2024-01-11T14:42:37;2.80;1.00
46490;DHT22;32204;49.160;8.580;2024-01-11T14:45:04;2.80;1.00
46490;DHT22;32204;49.160;8.580;2024-01-11T14:47:29;2.80;1.00
46490;DHT22;32204;49.160;8.580;2024-01-11T14:49:57;2.80;1.00
46490;DHT22;32204;49.160;8.580;2024-01-11T14:52:22;2.80;1.00
46490;DHT22;32204;49.160;8.580;2024-01-11T14:54:48;2.90;1.00
46490;DHT22;32204;49.160;8.580;2024-01-11T14:57:14;2.90;1.00
46490;DHT22;32204;49.160;8.580;2024-01-11T14:59:40;2.90;1.00
46490;DHT22;32204;49.160;8.580;2024-01-11T15:02:05;3.00;1.00
46490;DHT22;32204;49.160;8.580;2024-01-11T15:04:31;3.00;1.00
46490;DHT22;32204;49.160;8.580;2024-01-11T15:06:57;3.00;1.00
46490;DHT22;32204;49.160;8.580;2024-01-11T15:09:22;2.90;1.00
46490;DHT22;32204;49.160;8.580;2024-01-11T15:11:48;2.70;1.00
46490;DHT22;32204;49.160;8.580;2024-01-11T15:14:14;2.60;1.00
46490;DHT22;32204;49.160;8.580;2024-01-11T15:16:40;2.60;1.00
46490;DHT22;32204;49.160;8.580;2024-01-11T15:19:05;2.50;1.00
46490;DHT22;32204;49.160;8.580;2024-01-11T15:21:31;2.50;1.00
46490;DHT22;32204;49.160;8.580;2024-01-11T15:23:57;2.50;1.00
46490;DHT22;32204;49.160;8.580;2024-01-11T15:26:26;2.40;1.00
46490;DHT22;32204;49.160;8.580;2024-01-11T15:28:54;2.40;1.00
46490;DHT22;32204;49.160;8.580;2024-01-11T15:31:20;2.30;1.00
46490;DHT22;32204;49.160;8.580;2024-01-11T15:33:45;2.20;1.00
46490;DHT22;32204;49.160;8.580;2024-01-11T15:36:12;2.10;1.00